createdAt,value
2023-02-20T00:02:05.982Z,3.35
2023-02-20T00:05:08.777Z,3.78
2023-02-20T00:08:11.726Z,3.67
2023-02-20T00:11:14.725Z,3.53
2023-02-20T00:14:17.499Z,3.72
2023-02-20T00:17:20.288Z,3.75
2023-02-20T00:20:25.406Z,3.70
2023-02-20T00:23:28.216Z,3.58
2023-02-20T00:26:31.009Z,3.37
2023-02-20T00:29:34.661Z,3.35
2023-02-20T00:32:37.550Z,3.63
2023-02-20T00:35:40.310Z,3.83
2023-02-20T00:38:44.658Z,3.35
2023-02-20T00:41:47.473Z,3.50
2023-02-20T00:44:50.980Z,3.22
2023-02-20T00:47:53.772Z,3.15
2023-02-20T00:50:58.252Z,3.50
2023-02-20T00:54:01.000Z,3.63
2023-02-20T00:57:03.921Z,3.33
2023-02-20T01:00:09.290Z,2.97
2023-02-20T01:03:14.966Z,3.00
2023-02-20T01:06:17.993Z,3.33
2023-02-20T01:09:21.406Z,3.45
2023-02-20T01:12:24.550Z,3.37
2023-02-20T01:15:27.332Z,3.22
2023-02-20T01:18:32.222Z,3.70
2023-02-20T01:21:35.056Z,3.00
2023-02-20T01:24:37.990Z,3.10
2023-02-20T01:27:43.731Z,2.67
2023-02-20T01:30:46.622Z,2.90
2023-02-20T01:33:49.392Z,3.20
2023-02-20T01:36:54.356Z,2.50
2023-02-20T01:40:00.420Z,2.97
2023-02-20T01:43:04.644Z,3.37
2023-02-20T01:46:27.045Z,2.90
2023-02-20T01:49:32.816Z,3.15
2023-02-20T01:52:39.200Z,3.08
2023-02-20T01:55:47.418Z,2.40
2023-02-20T01:58:51.332Z,2.83
2023-02-20T02:01:55.802Z,2.97
2023-02-20T02:04:59.007Z,3.42
2023-02-20T02:08:04.926Z,3.30
2023-02-20T02:11:12.703Z,2.92
2023-02-20T02:14:16.074Z,2.73
2023-02-20T02:17:32.481Z,2.65
2023-02-20T02:21:12.525Z,3.30
2023-02-20T02:24:41.541Z,2.90
2023-02-20T02:28:08.531Z,2.90
2023-02-20T02:31:26.218Z,2.43
2023-02-20T02:34:53.673Z,2.88
2023-02-20T02:38:00.455Z,2.65
2023-02-20T02:41:28.616Z,2.60
2023-02-20T02:44:36.419Z,2.80
2023-02-20T02:47:50.004Z,2.80
2023-02-20T02:51:07.227Z,2.65
2023-02-20T02:54:20.994Z,2.60
2023-02-20T02:57:26.332Z,2.85
2023-02-20T03:00:48.151Z,3.00
2023-02-20T03:03:53.456Z,2.70
2023-02-20T03:07:00.728Z,2.85
2023-02-20T03:10:08.767Z,2.95
2023-02-20T03:13:13.445Z,2.55
2023-02-20T03:16:21.121Z,2.72
2023-02-20T03:19:32.374Z,2.57
2023-02-20T03:22:39.760Z,2.50
2023-02-20T03:25:55.955Z,2.90
2023-02-20T03:29:06.250Z,2.67
2023-02-20T03:32:31.026Z,3.17
2023-02-20T03:35:54.439Z,2.90
2023-02-20T03:39:24.340Z,2.30
2023-02-20T03:42:50.981Z,2.72
2023-02-20T03:46:07.232Z,2.75
2023-02-20T03:49:20.567Z,2.60
2023-02-20T03:52:24.202Z,2.67
2023-02-20T03:55:27.800Z,2.42
2023-02-20T03:58:37.520Z,2.63
2023-02-20T04:01:43.110Z,2.83
2023-02-20T04:04:53.164Z,2.55
2023-02-20T04:08:14.829Z,2.53
2023-02-20T04:11:25.174Z,2.60
2023-02-20T04:14:31.384Z,2.50
2023-02-20T04:17:47.211Z,2.63
2023-02-20T04:20:56.610Z,2.65
2023-02-20T04:24:21.642Z,2.30
2023-02-20T04:27:25.076Z,2.28
2023-02-20T04:30:33.414Z,2.08
2023-02-20T04:33:36.447Z,2.22
2023-02-20T04:36:44.970Z,2.67
2023-02-20T04:39:48.373Z,2.70
2023-02-20T04:42:52.749Z,2.30
2023-02-20T04:45:56.067Z,2.40
2023-02-20T04:48:59.296Z,2.35
2023-02-20T04:52:02.966Z,2.50
2023-02-20T04:55:06.081Z,2.33
2023-02-20T04:58:09.131Z,1.95
2023-02-20T05:01:28.242Z,2.30
2023-02-20T05:04:32.426Z,2.28
2023-02-20T05:07:35.151Z,2.67
2023-02-20T05:10:38.304Z,2.03
2023-02-20T05:13:41.236Z,2.45
2023-02-20T05:16:47.713Z,2.60
2023-02-20T05:19:50.530Z,2.53
2023-02-20T05:22:53.373Z,2.60
2023-02-20T05:25:56.180Z,2.50
2023-02-20T05:28:59.076Z,2.55
2023-02-20T05:32:02.088Z,2.97
2023-02-20T05:35:05.180Z,2.65
2023-02-20T05:38:08.036Z,2.25
2023-02-20T05:41:10.970Z,2.70
2023-02-20T05:44:13.709Z,2.35
2023-02-20T05:47:17.380Z,2.58
2023-02-20T05:50:20.132Z,2.40
2023-02-20T05:53:22.947Z,2.50
2023-02-20T05:56:25.825Z,2.77
2023-02-20T05:59:28.786Z,2.55
2023-02-20T06:02:34.791Z,3.33
2023-02-20T06:05:37.663Z,3.45
2023-02-20T06:08:41.118Z,3.63
2023-02-20T06:11:57.335Z,3.33
2023-02-20T06:15:00.139Z,3.75
2023-02-20T06:18:02.906Z,3.47
2023-02-20T06:21:08.670Z,3.63
2023-02-20T06:24:11.652Z,3.88
2023-02-20T06:27:16.161Z,4.23
2023-02-20T06:30:20.355Z,4.13
2023-02-20T06:33:23.308Z,4.30
2023-02-20T06:36:31.245Z,3.65
2023-02-20T06:39:34.114Z,4.25
2023-02-20T06:42:37.154Z,4.07
2023-02-20T06:45:40.554Z,4.07
2023-02-20T06:48:49.258Z,4.32
2023-02-20T06:51:55.172Z,4.30
2023-02-20T06:55:01.530Z,4.57
2023-02-20T06:58:05.814Z,3.90
2023-02-20T07:01:09.546Z,4.05
2023-02-20T07:04:24.480Z,4.72
2023-02-20T07:07:28.417Z,4.28
2023-02-20T07:10:34.718Z,4.70
2023-02-20T07:13:38.594Z,4.60
2023-02-20T07:16:43.797Z,3.97
2023-02-20T07:19:53.286Z,4.22
2023-02-20T07:22:57.189Z,3.90
2023-02-20T07:26:00.395Z,4.15
2023-02-20T07:29:03.546Z,4.20
2023-02-20T07:32:06.517Z,4.32
2023-02-20T07:35:09.710Z,3.97
2023-02-20T07:38:16.514Z,4.63
2023-02-20T07:41:19.468Z,4.30
2023-02-20T07:44:23.631Z,3.87
2023-02-20T07:47:51.480Z,3.67
2023-02-20T07:50:57.470Z,4.22
2023-02-20T07:54:01.921Z,3.95
2023-02-20T07:57:05.567Z,3.70
2023-02-20T08:00:11.344Z,3.73
2023-02-20T08:03:20.157Z,3.67
2023-02-20T08:06:24.209Z,3.38
2023-02-20T08:09:27.547Z,3.50
2023-02-20T08:58:09.182Z,3.83
2023-02-20T09:01:12.189Z,3.33
2023-02-20T09:04:17.188Z,3.20
2023-02-20T09:07:20.391Z,3.47
2023-02-20T09:10:24.741Z,3.30
2023-02-20T09:13:27.913Z,3.33
2023-02-20T09:16:30.636Z,3.40
2023-02-20T09:19:33.644Z,3.13
2023-02-20T09:22:37.161Z,3.35
2023-02-20T09:25:42.838Z,3.75
2023-02-20T09:28:46.261Z,3.47
2023-02-20T09:31:52.026Z,2.95
2023-02-20T09:34:54.877Z,3.13
2023-02-20T09:37:57.752Z,3.10
2023-02-20T09:41:01.352Z,3.28
2023-02-20T09:44:24.984Z,3.37
2023-02-20T09:48:16.698Z,2.92
2023-02-20T09:51:25.116Z,2.58
2023-02-20T09:54:34.855Z,2.38
2023-02-20T09:57:38.867Z,2.70
2023-02-20T10:00:44.236Z,2.40
2023-02-20T10:04:01.077Z,2.38
2023-02-20T10:07:47.114Z,2.10
2023-02-20T10:10:58.536Z,1.90
2023-02-20T10:14:26.471Z,2.30
2023-02-20T10:17:52.141Z,2.70
2023-02-20T10:21:14.675Z,2.03
2023-02-20T10:24:32.969Z,1.83
2023-02-20T10:27:42.640Z,2.17
2023-02-20T10:31:16.391Z,2.03
2023-02-20T10:34:29.827Z,2.10
2023-02-20T10:37:47.769Z,2.25
2023-02-20T10:40:57.071Z,2.17
2023-02-20T10:44:27.854Z,2.40
2023-02-20T10:47:59.473Z,2.35
2023-02-20T10:51:14.459Z,2.50
2023-02-20T10:54:25.675Z,2.58
2023-02-20T10:57:35.014Z,2.72
2023-02-20T11:00:42.924Z,2.30
2023-02-20T11:04:04.459Z,2.50
2023-02-20T11:07:14.113Z,2.50
2023-02-20T11:10:19.289Z,2.40
2023-02-20T11:13:25.537Z,2.78
2023-02-20T11:16:44.283Z,2.50
2023-02-20T11:20:02.239Z,2.78
2023-02-20T11:23:06.007Z,2.60
2023-02-20T11:26:21.095Z,2.80
2023-02-20T11:29:25.407Z,2.63
2023-02-20T11:32:38.107Z,2.95
2023-02-20T11:35:47.277Z,2.88
2023-02-20T11:39:01.496Z,4.07
2023-02-20T11:42:17.407Z,3.35
2023-02-20T11:45:25.349Z,3.17
2023-02-20T11:48:29.109Z,2.47
2023-02-20T11:51:45.139Z,3.20
2023-02-20T11:55:08.848Z,2.60
2023-02-20T11:58:26.210Z,3.53
2023-02-20T12:01:31.914Z,3.45
2023-02-20T12:04:35.065Z,3.30
2023-02-20T12:07:53.966Z,3.50
2023-02-20T12:11:09.417Z,3.73
2023-02-20T12:14:14.799Z,3.55
2023-02-20T12:17:35.213Z,3.42
2023-02-20T12:20:47.013Z,3.63
2023-02-20T12:24:10.261Z,4.40
2023-02-20T12:27:43.522Z,3.57
2023-02-20T12:31:17.743Z,3.88
2023-02-20T12:34:45.589Z,3.88
2023-02-20T12:38:19.027Z,3.65
2023-02-20T12:41:40.427Z,3.72
2023-02-20T12:45:06.111Z,3.43
2023-02-20T12:48:20.858Z,3.75
2023-02-20T12:52:02.941Z,3.70
2023-02-20T12:55:30.447Z,3.75
2023-02-20T12:59:04.858Z,3.78
2023-02-20T13:02:43.104Z,3.70
2023-02-20T13:05:49.219Z,3.72
2023-02-20T13:09:03.816Z,3.70
2023-02-20T13:12:18.370Z,3.80
2023-02-20T13:15:36.718Z,3.72
2023-02-20T13:18:45.992Z,3.40
2023-02-20T13:21:48.951Z,3.45
2023-02-20T13:24:51.851Z,3.80
2023-02-20T13:28:12.787Z,4.07
2023-02-20T13:31:20.441Z,3.78
2023-02-20T13:34:38.329Z,3.67
2023-02-20T13:37:41.212Z,3.22
2023-02-20T13:41:02.696Z,3.72
2023-02-20T13:44:28.234Z,3.55
2023-02-20T13:47:34.867Z,4.20
2023-02-20T13:50:39.160Z,3.60
2023-02-20T13:54:01.466Z,3.60
2023-02-20T13:57:17.601Z,3.67
2023-02-20T14:00:32.572Z,3.35
2023-02-20T14:03:35.732Z,3.47
2023-02-20T14:06:58.053Z,3.67
2023-02-20T14:10:04.838Z,3.30
2023-02-20T14:13:23.046Z,3.55
2023-02-20T14:16:38.045Z,3.35
2023-02-20T14:19:45.032Z,4.32
2023-02-20T14:22:48.281Z,4.33
2023-02-20T14:26:22.387Z,4.93
2023-02-20T14:29:33.949Z,5.63
2023-02-20T14:32:36.996Z,5.95
2023-02-20T14:35:47.066Z,7.38
2023-02-20T14:39:10.138Z,7.23
2023-02-20T14:42:24.353Z,7.80
2023-02-20T14:45:28.182Z,8.02
2023-02-20T14:48:40.990Z,7.97
2023-02-20T14:51:45.116Z,7.43
2023-02-20T14:55:00.227Z,7.57
2023-02-20T14:58:23.599Z,7.03
2023-02-20T15:01:39.400Z,7.18
2023-02-20T15:04:52.570Z,7.15
2023-02-20T15:08:02.785Z,7.05
2023-02-20T15:11:12.215Z,6.87
2023-02-20T15:14:22.093Z,6.28
2023-02-20T15:17:28.511Z,6.85
2023-02-20T15:20:35.195Z,7.10
2023-02-20T15:23:44.228Z,5.97
2023-02-20T15:26:47.475Z,6.83
2023-02-20T15:30:16.060Z,6.75
2023-02-20T15:33:21.102Z,6.25
2023-02-20T15:36:26.614Z,6.25
2023-02-20T15:39:30.043Z,6.47
2023-02-20T15:42:33.071Z,5.67
2023-02-20T15:45:41.107Z,6.15
2023-02-20T15:48:48.139Z,6.18
2023-02-20T15:51:56.244Z,5.72
2023-02-20T15:55:02.520Z,5.88
2023-02-20T15:58:21.890Z,6.47
2023-02-20T16:01:26.092Z,5.82
2023-02-20T16:04:29.184Z,6.07
2023-02-20T16:07:32.218Z,5.50
2023-02-20T16:10:35.424Z,5.93
2023-02-20T16:13:44.897Z,5.83
2023-02-20T16:16:53.626Z,6.15
2023-02-20T16:19:57.225Z,6.05
2023-02-20T16:23:02.149Z,6.13
2023-02-20T16:26:05.729Z,6.55
2023-02-20T16:29:28.811Z,5.43
2023-02-20T16:32:32.366Z,5.53
2023-02-20T16:35:37.915Z,5.38
2023-02-20T16:38:41.742Z,5.95
2023-02-20T16:41:46.821Z,5.30
2023-02-20T16:44:52.407Z,5.60
2023-02-20T16:47:57.218Z,5.18
2023-02-20T16:51:01.242Z,5.38
2023-02-20T16:54:07.483Z,5.50
2023-02-20T16:57:10.831Z,6.70
2023-02-20T17:00:20.535Z,5.60
2023-02-20T17:03:25.092Z,6.63
2023-02-20T17:06:31.053Z,6.57
2023-02-20T17:09:42.907Z,5.40
2023-02-20T17:12:48.933Z,6.63
2023-02-20T17:15:53.073Z,6.67
2023-02-20T17:18:56.829Z,6.50
2023-02-20T17:22:00.820Z,7.05
2023-02-20T17:25:04.849Z,6.38
2023-02-20T17:28:12.811Z,6.72
2023-02-20T17:31:17.771Z,6.87
2023-02-20T17:34:21.410Z,6.55
2023-02-20T17:37:26.647Z,6.60
2023-02-20T17:40:32.676Z,6.20
2023-02-20T17:43:39.413Z,6.88
2023-02-20T17:46:46.074Z,6.47
2023-02-20T17:49:57.394Z,6.70
2023-02-20T17:53:03.715Z,7.50
2023-02-20T17:56:10.629Z,6.70
2023-02-20T17:59:16.881Z,6.57
2023-02-20T18:02:21.182Z,7.30
2023-02-20T18:05:25.275Z,7.22
2023-02-20T18:08:29.644Z,7.55
2023-02-20T18:11:37.235Z,7.22
2023-02-20T18:14:41.352Z,7.00
2023-02-20T18:17:45.315Z,6.43
2023-02-20T18:20:50.792Z,6.50
2023-02-20T18:23:55.092Z,7.05
2023-02-20T18:26:58.975Z,6.10
2023-02-20T18:30:04.975Z,6.95
2023-02-20T18:33:09.585Z,6.67
2023-02-20T18:36:14.242Z,6.63
2023-02-20T18:39:20.122Z,6.82
2023-02-20T18:42:24.357Z,6.68
2023-02-20T18:45:29.583Z,7.20
2023-02-20T18:48:34.063Z,6.40
2023-02-20T18:51:50.342Z,7.10
2023-02-20T18:54:54.535Z,6.82
2023-02-20T18:58:01.017Z,6.85
2023-02-20T19:01:09.089Z,5.97
2023-02-20T19:04:15.697Z,6.77
2023-02-20T19:07:21.304Z,6.43
2023-02-20T19:10:28.513Z,6.65
2023-02-20T19:13:52.178Z,6.88
2023-02-20T19:16:58.813Z,5.93
2023-02-20T19:20:09.247Z,6.60
2023-02-20T19:23:16.453Z,7.03
2023-02-20T19:26:25.122Z,6.13
2023-02-20T19:29:30.527Z,7.03
2023-02-20T19:32:38.645Z,6.38
2023-02-20T19:35:45.457Z,6.27
2023-02-20T19:38:49.836Z,6.63
2023-02-20T19:41:54.491Z,6.90
2023-02-20T19:45:01.853Z,6.35
2023-02-20T19:48:08.991Z,7.10
2023-02-20T19:51:19.218Z,6.93
2023-02-20T19:54:30.761Z,7.45
2023-02-20T19:57:36.986Z,7.47
2023-02-20T20:00:45.242Z,8.88
2023-02-20T20:03:50.266Z,8.80
2023-02-20T20:06:56.566Z,8.60
2023-02-20T20:10:01.059Z,9.45
2023-02-20T20:13:09.248Z,10.45
2023-02-20T20:16:15.340Z,9.68
2023-02-20T20:19:23.734Z,11.23
2023-02-20T20:22:31.938Z,10.23
2023-02-20T20:25:36.853Z,11.25
2023-02-20T20:28:41.566Z,12.88
2023-02-20T20:31:47.638Z,12.82
2023-02-20T20:34:58.250Z,13.07
2023-02-20T20:38:03.340Z,11.90
2023-02-20T20:41:16.502Z,13.18
2023-02-20T20:44:24.379Z,13.80
2023-02-20T20:47:31.101Z,13.88
2023-02-20T20:50:40.033Z,15.45
2023-02-20T20:53:47.352Z,14.63
2023-02-20T20:56:52.495Z,15.02
2023-02-20T21:00:00.808Z,14.55
2023-02-20T21:03:11.645Z,16.42
2023-02-20T21:06:16.987Z,15.50
2023-02-20T21:09:24.143Z,17.20
2023-02-20T21:12:28.481Z,16.13
2023-02-20T21:15:32.836Z,16.80
2023-02-20T21:18:38.377Z,16.23
2023-02-20T21:21:43.315Z,16.67
2023-02-20T21:24:47.240Z,16.27
2023-02-20T21:27:53.724Z,16.50
2023-02-20T21:30:58.897Z,16.05
2023-02-20T21:34:02.714Z,16.52
2023-02-20T21:37:07.197Z,16.17
2023-02-20T21:40:12.600Z,16.53
2023-02-20T21:43:35.247Z,17.60
2023-02-20T21:46:38.222Z,15.98
2023-02-20T21:49:48.468Z,17.10
2023-02-20T21:52:51.749Z,15.88
2023-02-20T21:55:54.641Z,16.70
2023-02-20T21:59:06.064Z,16.13
2023-02-20T22:02:19.949Z,16.25
2023-02-20T22:05:26.484Z,16.27
2023-02-20T22:08:48.207Z,16.85
2023-02-20T22:12:09.727Z,16.20
2023-02-20T22:15:33.001Z,15.70
2023-02-20T22:18:54.885Z,16.75
2023-02-20T22:22:19.280Z,16.15
2023-02-20T22:25:40.708Z,17.48
2023-02-20T22:29:02.171Z,16.97
2023-02-20T22:32:23.798Z,16.85
2023-02-20T22:35:45.146Z,17.70
2023-02-20T22:39:06.569Z,16.30
2023-02-20T22:42:42.721Z,18.58
2023-02-20T22:46:18.717Z,16.70
2023-02-20T22:49:40.662Z,16.23
2023-02-20T22:53:02.121Z,16.63
2023-02-20T22:56:27.285Z,18.08
2023-02-20T22:59:48.517Z,17.50
2023-02-20T23:03:10.198Z,16.80
2023-02-20T23:06:40.036Z,17.08
2023-02-20T23:10:01.816Z,18.10
2023-02-20T23:13:25.131Z,18.48
2023-02-20T23:16:46.836Z,16.70
2023-02-20T23:20:08.803Z,16.43
2023-02-20T23:23:33.554Z,16.40
2023-02-20T23:26:58.059Z,17.33
2023-02-20T23:30:19.846Z,17.50
2023-02-20T23:33:41.893Z,17.80
2023-02-20T23:37:07.838Z,16.40
2023-02-20T23:40:36.427Z,17.63
2023-02-20T23:44:01.860Z,16.80
2023-02-20T23:47:23.287Z,16.63
2023-02-20T23:50:45.163Z,16.85
2023-02-20T23:54:06.565Z,16.47
2023-02-20T23:57:28.088Z,16.33
